createdAt,value
2023-01-27T00:00:39.209Z,0.00
2023-01-27T00:03:06.667Z,0.00
2023-01-27T00:05:33.427Z,0.00
2023-01-27T00:08:00.141Z,0.00
2023-01-27T00:10:27.829Z,0.00
2023-01-27T00:13:13.512Z,0.00
2023-01-27T00:15:40.693Z,0.00
2023-01-27T00:18:07.727Z,-0.10
2023-01-27T00:20:54.806Z,-0.10
2023-01-27T00:23:42.362Z,-0.20
2023-01-27T00:26:13.253Z,-0.20
2023-01-27T00:28:43.639Z,-0.30
2023-01-27T00:31:32.178Z,-0.30
2023-01-27T00:34:09.677Z,-0.30
2023-01-27T00:36:41.238Z,-0.30
2023-01-27T00:39:10.118Z,-0.30
2023-01-27T00:41:37.682Z,-0.40
2023-01-27T00:44:05.807Z,-0.40
2023-01-27T00:46:33.392Z,-0.30
2023-01-27T00:49:01.218Z,-0.30
2023-01-27T00:51:27.941Z,-0.30
2023-01-27T00:53:54.790Z,-0.30
2023-01-27T00:56:21.561Z,-0.30
2023-01-27T00:58:48.390Z,-0.20
2023-01-27T01:01:16.624Z,-0.20
2023-01-27T01:03:44.001Z,-0.20
2023-01-27T01:06:12.599Z,-0.10
2023-01-27T01:08:39.369Z,-0.10
2023-01-27T01:11:07.680Z,-0.10
2023-01-27T01:13:35.271Z,-0.10
2023-01-27T01:16:20.228Z,0.00
2023-01-27T01:18:47.057Z,-0.10
2023-01-27T01:21:14.928Z,-0.10
2023-01-27T01:23:43.551Z,-0.10
2023-01-27T01:26:12.101Z,-0.10
2023-01-27T01:28:39.411Z,-0.10
2023-01-27T01:31:12.980Z,-0.10
2023-01-27T01:33:39.961Z,-0.10
2023-01-27T01:36:15.252Z,-0.10
2023-01-27T01:38:42.535Z,-0.10
2023-01-27T01:41:13.087Z,0.00
2023-01-27T01:43:40.647Z,0.00
2023-01-27T01:46:09.974Z,0.00
2023-01-27T01:48:47.276Z,0.00
2023-01-27T01:51:32.441Z,0.00
2023-01-27T01:54:05.252Z,0.10
2023-01-27T01:56:49.702Z,0.10
2023-01-27T01:59:21.844Z,0.10
2023-01-27T02:01:50.654Z,0.10
2023-01-27T02:04:20.730Z,0.20
2023-01-27T02:06:56.559Z,0.20
2023-01-27T02:09:23.840Z,0.20
2023-01-27T02:11:51.285Z,0.20
2023-01-27T02:14:18.793Z,0.20
2023-01-27T02:16:45.650Z,0.20
2023-01-27T02:19:25.945Z,0.30
2023-01-27T02:21:56.407Z,0.30
2023-01-27T02:24:38.259Z,0.30
2023-01-27T02:27:05.646Z,0.30
2023-01-27T02:29:32.478Z,0.30
2023-01-27T02:31:59.317Z,0.30
2023-01-27T02:34:29.775Z,0.30
2023-01-27T02:37:01.871Z,0.30
2023-01-27T02:39:36.070Z,0.30
2023-01-27T02:42:05.852Z,0.30
2023-01-27T02:44:33.325Z,0.40
2023-01-27T02:47:00.129Z,0.40
2023-01-27T02:49:28.126Z,0.40
2023-01-27T02:51:55.089Z,0.40
2023-01-27T02:54:25.242Z,0.40
2023-01-27T02:56:52.051Z,0.30
2023-01-27T02:59:18.780Z,0.30
2023-01-27T03:01:47.584Z,0.40
2023-01-27T03:04:15.774Z,0.40
2023-01-27T03:06:42.744Z,0.50
2023-01-27T03:09:09.553Z,0.50
2023-01-27T03:11:56.208Z,0.50
2023-01-27T03:14:42.183Z,0.60
2023-01-27T03:17:27.874Z,0.60
2023-01-27T03:19:54.966Z,0.60
2023-01-27T03:22:21.786Z,0.60
2023-01-27T03:24:48.529Z,0.60
2023-01-27T03:27:15.242Z,0.70
2023-01-27T03:30:02.904Z,0.70
2023-01-27T03:32:31.682Z,0.70
2023-01-27T03:35:23.282Z,0.70
2023-01-27T03:38:08.874Z,0.70
2023-01-27T03:40:54.051Z,0.70
2023-01-27T03:43:39.470Z,0.70
2023-01-27T03:46:19.074Z,0.70
2023-01-27T03:48:56.359Z,0.70
2023-01-27T03:51:25.882Z,0.70
2023-01-27T03:53:53.611Z,0.70
2023-01-27T03:56:21.607Z,0.70
2023-01-27T03:58:49.842Z,0.70
2023-01-27T04:01:20.373Z,0.80
2023-01-27T04:04:07.744Z,0.80
2023-01-27T04:06:56.618Z,0.80
2023-01-27T04:09:35.270Z,0.80
2023-01-27T04:12:04.897Z,0.80
2023-01-27T04:14:38.909Z,0.80
2023-01-27T04:17:14.926Z,0.90
2023-01-27T04:19:41.941Z,0.90
2023-01-27T04:22:14.086Z,0.90
2023-01-27T04:24:40.869Z,0.90
2023-01-27T04:27:10.384Z,0.90
2023-01-27T04:29:40.969Z,0.90
2023-01-27T04:32:10.082Z,0.90
2023-01-27T04:34:37.693Z,0.90
2023-01-27T04:37:06.791Z,0.90
2023-01-27T04:39:34.045Z,0.90
2023-01-27T04:42:01.209Z,0.90
2023-01-27T04:44:30.016Z,0.90
2023-01-27T04:46:56.711Z,0.90
2023-01-27T04:49:23.578Z,1.00
2023-01-27T04:51:50.328Z,1.00
2023-01-27T04:54:17.361Z,1.00
2023-01-27T04:56:57.306Z,1.00
2023-01-27T04:59:24.435Z,0.90
2023-01-27T05:01:52.122Z,0.90
2023-01-27T05:04:19.425Z,0.90
2023-01-27T05:06:48.274Z,0.90
2023-01-27T05:09:15.124Z,0.90
2023-01-27T05:11:41.925Z,0.90
2023-01-27T05:14:08.617Z,0.90
2023-01-27T05:16:35.354Z,0.90
2023-01-27T05:19:02.181Z,0.90
2023-01-27T05:21:30.823Z,0.90
2023-01-27T05:23:58.044Z,0.90
2023-01-27T05:26:27.757Z,0.90
2023-01-27T05:28:57.711Z,0.90
2023-01-27T05:31:27.526Z,0.90
2023-01-27T05:33:55.648Z,0.90
2023-01-27T05:36:24.512Z,0.90
2023-01-27T05:38:51.469Z,0.90
2023-01-27T05:41:19.880Z,0.90
2023-01-27T05:43:48.017Z,0.90
2023-01-27T05:46:16.269Z,0.90
2023-01-27T05:48:48.360Z,0.90
2023-01-27T05:51:16.953Z,0.90
2023-01-27T05:53:44.748Z,0.80
2023-01-27T05:56:14.231Z,0.80
2023-01-27T05:58:41.854Z,0.80
2023-01-27T06:01:15.443Z,0.80
2023-01-27T06:03:43.166Z,0.90
2023-01-27T06:06:11.926Z,0.90
2023-01-27T06:08:39.666Z,0.90
2023-01-27T06:11:07.144Z,0.90
2023-01-27T06:13:38.864Z,0.90
2023-01-27T06:16:11.201Z,0.80
2023-01-27T06:18:39.155Z,0.80
2023-01-27T06:21:08.269Z,0.70
2023-01-27T06:23:35.195Z,0.70
2023-01-27T06:26:04.656Z,0.70
2023-01-27T06:28:31.367Z,0.70
2023-01-27T06:31:06.571Z,0.80
2023-01-27T06:33:33.689Z,0.80
2023-01-27T06:36:03.344Z,0.90
2023-01-27T06:38:30.160Z,0.90
2023-01-27T06:40:56.918Z,0.90
2023-01-27T06:43:23.925Z,0.80
2023-01-27T06:45:51.445Z,0.90
2023-01-27T06:48:18.199Z,0.80
2023-01-27T06:50:45.202Z,0.80
2023-01-27T06:53:12.365Z,0.80
2023-01-27T06:55:41.541Z,0.80
2023-01-27T06:58:09.504Z,0.80
2023-01-27T07:00:37.619Z,0.90
2023-01-27T07:03:05.928Z,0.90
2023-01-27T07:05:33.923Z,0.90
2023-01-27T07:08:01.025Z,1.00
2023-01-27T07:10:27.940Z,1.00
2023-01-27T07:13:04.933Z,1.00
2023-01-27T07:15:32.166Z,1.10
2023-01-27T07:18:00.399Z,1.10
2023-01-27T07:20:30.541Z,1.10
2023-01-27T07:23:02.649Z,1.20
2023-01-27T07:25:30.714Z,1.20
2023-01-27T07:27:58.826Z,1.20
2023-01-27T07:30:26.350Z,1.20
2023-01-27T07:32:55.045Z,1.30
2023-01-27T07:35:22.728Z,1.30
2023-01-27T07:37:49.671Z,1.40
2023-01-27T07:40:19.895Z,1.50
2023-01-27T07:42:46.724Z,1.50
2023-01-27T07:45:15.059Z,1.50
2023-01-27T07:47:41.934Z,1.60
2023-01-27T07:50:09.403Z,1.60
2023-01-27T07:52:36.108Z,1.60
2023-01-27T07:55:02.909Z,1.70
2023-01-27T07:57:29.687Z,1.70
2023-01-27T07:59:56.725Z,1.70
2023-01-27T08:02:24.088Z,1.70
2023-01-27T08:04:53.494Z,1.70
2023-01-27T08:07:21.211Z,1.80
2023-01-27T08:09:48.087Z,1.90
2023-01-27T08:12:14.940Z,1.90
2023-01-27T08:14:41.822Z,1.90
2023-01-27T08:17:08.633Z,1.90
2023-01-27T08:19:35.565Z,2.00
2023-01-27T08:22:02.622Z,2.00
2023-01-27T08:24:29.625Z,2.10
2023-01-27T08:26:56.882Z,2.10
2023-01-27T08:29:23.791Z,2.10
2023-01-27T08:31:50.656Z,2.10
2023-01-27T08:34:17.506Z,2.10
2023-01-27T08:36:44.465Z,2.20
2023-01-27T08:39:14.458Z,2.30
2023-01-27T08:41:41.140Z,2.40
2023-01-27T08:44:07.872Z,2.40
2023-01-27T08:46:35.048Z,2.40
2023-01-27T08:49:02.084Z,2.50
2023-01-27T08:51:29.035Z,2.50
2023-01-27T08:53:56.217Z,2.60
2023-01-27T08:56:23.593Z,2.60
2023-01-27T08:58:52.209Z,2.60
2023-01-27T09:01:21.090Z,2.70
2023-01-27T09:03:48.416Z,2.70
2023-01-27T09:06:16.208Z,2.80
2023-01-27T09:08:44.630Z,2.80
2023-01-27T09:11:13.070Z,2.90
2023-01-27T09:13:39.852Z,3.00
2023-01-27T09:16:07.130Z,3.10
2023-01-27T09:18:34.421Z,3.10
2023-01-27T09:21:07.565Z,3.20
2023-01-27T09:23:34.347Z,3.30
2023-01-27T09:26:01.192Z,3.50
2023-01-27T09:28:28.215Z,3.70
2023-01-27T09:30:58.796Z,3.80
2023-01-27T09:33:27.727Z,3.80
2023-01-27T09:36:09.746Z,3.80
2023-01-27T09:38:41.984Z,3.80
2023-01-27T09:41:08.819Z,3.80
2023-01-27T09:43:56.093Z,3.80
2023-01-27T09:46:53.640Z,3.90
2023-01-27T09:49:29.737Z,3.90
2023-01-27T09:52:47.768Z,3.90
2023-01-27T09:55:43.943Z,3.90
2023-01-27T09:58:32.924Z,3.90
2023-01-27T10:01:08.869Z,3.90
2023-01-27T10:04:11.328Z,3.90
2023-01-27T10:06:48.840Z,3.90
2023-01-27T10:09:41.408Z,3.90
2023-01-27T10:12:33.119Z,4.00
2023-01-27T10:15:09.779Z,4.10
2023-01-27T10:17:56.530Z,4.10
2023-01-27T10:20:41.523Z,4.20
2023-01-27T10:23:45.588Z,4.20
2023-01-27T10:26:28.815Z,4.30
2023-01-27T10:29:25.828Z,4.30
2023-01-27T10:31:58.052Z,4.40
2023-01-27T10:34:37.789Z,4.40
2023-01-27T10:37:33.399Z,4.30
2023-01-27T10:40:18.919Z,4.30
2023-01-27T10:43:18.206Z,4.30
2023-01-27T10:46:04.283Z,4.20
2023-01-27T10:49:10.915Z,4.20
2023-01-27T10:51:49.630Z,4.20
2023-01-27T10:54:29.383Z,4.30
2023-01-27T10:57:05.889Z,5.70
2023-01-27T11:00:10.985Z,6.40
2023-01-27T11:02:45.815Z,6.90
2023-01-27T11:05:20.172Z,6.90
2023-01-27T11:07:54.356Z,6.70
2023-01-27T11:10:22.816Z,6.40
2023-01-27T11:12:54.265Z,6.00
2023-01-27T11:15:27.881Z,5.70
2023-01-27T11:18:20.436Z,5.40
2023-01-27T11:20:54.421Z,5.10
2023-01-27T11:23:26.329Z,4.90
2023-01-27T11:26:23.421Z,4.60
2023-01-27T11:29:14.890Z,4.40
2023-01-27T11:31:52.514Z,4.30
2023-01-27T11:34:29.010Z,4.20
2023-01-27T11:36:55.943Z,4.10
2023-01-27T11:39:23.205Z,4.00
2023-01-27T11:41:55.787Z,3.90
2023-01-27T11:44:26.045Z,3.90
2023-01-27T11:46:54.057Z,3.80
2023-01-27T11:49:31.787Z,3.70
2023-01-27T11:52:18.362Z,3.60
2023-01-27T11:55:07.036Z,3.60
2023-01-27T11:57:36.348Z,3.60
2023-01-27T12:00:08.220Z,3.60
2023-01-27T12:03:12.659Z,3.60
2023-01-27T12:05:45.310Z,3.50
2023-01-27T12:08:12.501Z,3.50
2023-01-27T12:10:44.427Z,3.60
2023-01-27T12:13:19.385Z,3.70
2023-01-27T12:15:53.673Z,3.70
2023-01-27T12:18:23.553Z,3.90
2023-01-27T12:20:59.929Z,4.00
2023-01-27T12:23:56.395Z,4.20
2023-01-27T12:26:38.876Z,4.40
2023-01-27T12:29:14.347Z,4.50
2023-01-27T12:31:50.443Z,4.60
2023-01-27T12:34:23.108Z,4.80
2023-01-27T12:36:50.710Z,4.90
2023-01-27T12:39:39.338Z,5.00
2023-01-27T12:42:06.364Z,5.00
2023-01-27T12:44:42.746Z,5.10
2023-01-27T12:47:30.332Z,5.00
2023-01-27T12:50:22.286Z,4.90
2023-01-27T12:53:08.402Z,4.80
2023-01-27T12:55:56.658Z,4.70
2023-01-27T12:58:36.420Z,4.70
2023-01-27T13:01:07.949Z,4.60
2023-01-27T13:03:40.764Z,4.50
2023-01-27T13:06:08.261Z,4.40
2023-01-27T13:08:40.390Z,4.30
2023-01-27T13:11:07.298Z,4.20
2023-01-27T13:13:34.393Z,4.10
2023-01-27T13:16:15.767Z,4.00
2023-01-27T13:18:42.583Z,4.00
2023-01-27T13:21:15.136Z,4.00
2023-01-27T13:23:42.393Z,3.90
2023-01-27T13:26:11.600Z,3.90
2023-01-27T13:29:00.052Z,4.00
2023-01-27T13:31:44.722Z,3.90
2023-01-27T13:34:23.306Z,3.80
2023-01-27T13:37:05.514Z,3.70
2023-01-27T13:39:47.485Z,3.80
2023-01-27T13:42:26.215Z,3.80
2023-01-27T13:45:10.840Z,3.70
2023-01-27T13:47:58.620Z,3.70
2023-01-27T13:50:32.272Z,3.70
2023-01-27T13:53:00.489Z,3.70
2023-01-27T13:55:39.281Z,3.70
2023-01-27T13:58:37.950Z,3.70
2023-01-27T14:01:36.643Z,3.70
2023-01-27T14:04:22.706Z,3.70
2023-01-27T14:07:04.765Z,3.60
2023-01-27T14:09:44.507Z,3.60
2023-01-27T14:12:39.255Z,3.60
2023-01-27T14:15:38.289Z,3.70
2023-01-27T14:18:09.418Z,3.80
2023-01-27T14:21:00.003Z,3.90
2023-01-27T14:24:11.459Z,3.90
2023-01-27T14:27:01.889Z,3.80
2023-01-27T14:29:48.088Z,3.70
2023-01-27T14:32:32.229Z,3.60
2023-01-27T14:35:43.433Z,3.60
2023-01-27T14:38:30.338Z,3.50
2023-01-27T14:41:12.983Z,3.50
2023-01-27T14:43:58.663Z,3.30
2023-01-27T14:46:36.607Z,3.20
2023-01-27T14:49:09.019Z,3.20
2023-01-27T14:51:57.994Z,3.20
2023-01-27T14:54:57.968Z,3.20
2023-01-27T14:57:57.552Z,3.20
2023-01-27T15:00:45.603Z,3.20
2023-01-27T15:03:33.147Z,3.20
2023-01-27T15:06:14.809Z,3.20
2023-01-27T15:09:02.048Z,3.30
2023-01-27T15:11:41.142Z,3.30
2023-01-27T15:14:17.075Z,3.20
2023-01-27T15:17:08.795Z,3.20
2023-01-27T15:19:53.147Z,3.10
2023-01-27T15:22:34.880Z,3.20
2023-01-27T15:25:21.152Z,3.20
2023-01-27T15:27:51.920Z,3.10
2023-01-27T15:30:38.587Z,3.10
2023-01-27T15:33:42.970Z,3.10
2023-01-27T15:36:28.030Z,3.10
2023-01-27T15:38:59.062Z,3.10
2023-01-27T15:41:26.319Z,3.00
2023-01-27T15:44:16.045Z,3.00
2023-01-27T15:46:51.568Z,3.10
2023-01-27T15:49:25.535Z,3.00
2023-01-27T15:51:57.588Z,3.10
2023-01-27T15:54:31.608Z,3.10
2023-01-27T15:57:03.936Z,3.10
2023-01-27T15:59:49.841Z,3.10
2023-01-27T16:02:26.770Z,3.10
2023-01-27T16:05:25.582Z,3.10
2023-01-27T16:07:55.030Z,3.10
2023-01-27T16:10:24.477Z,3.10
2023-01-27T16:13:29.946Z,3.10
2023-01-27T16:16:18.652Z,3.00
2023-01-27T16:19:05.513Z,3.00
2023-01-27T16:21:50.966Z,3.00
2023-01-27T16:24:25.099Z,3.00
2023-01-27T16:27:15.608Z,3.00
2023-01-27T16:29:57.227Z,3.00
2023-01-27T16:32:35.474Z,3.00
2023-01-27T16:35:05.879Z,3.00
2023-01-27T16:37:36.566Z,3.00
2023-01-27T16:40:19.397Z,3.00
2023-01-27T16:43:02.125Z,3.10
2023-01-27T16:45:38.716Z,3.10
2023-01-27T16:48:13.615Z,3.10
2023-01-27T16:50:42.389Z,3.10
2023-01-27T16:53:20.745Z,3.20
2023-01-27T16:55:56.867Z,3.20
2023-01-27T16:58:32.428Z,3.30
2023-01-27T17:01:03.459Z,3.30
2023-01-27T17:03:35.413Z,3.40
2023-01-27T17:06:05.904Z,3.40
2023-01-27T17:08:35.925Z,3.40
2023-01-27T17:11:27.714Z,3.40
2023-01-27T17:14:02.436Z,3.50
2023-01-27T17:16:36.388Z,3.50
2023-01-27T17:19:25.507Z,3.50
2023-01-27T17:21:56.293Z,3.50
2023-01-27T17:24:35.996Z,3.40
2023-01-27T17:27:18.100Z,3.30
2023-01-27T17:29:47.035Z,3.20
2023-01-27T17:32:26.529Z,3.10
2023-01-27T17:34:59.870Z,3.10
2023-01-27T17:37:29.372Z,3.00
2023-01-27T17:39:58.744Z,3.00
2023-01-27T17:42:31.014Z,2.90
2023-01-27T17:45:26.640Z,2.90
2023-01-27T17:47:54.187Z,2.90
2023-01-27T17:50:25.448Z,2.90
2023-01-27T17:52:56.272Z,2.90
2023-01-27T17:55:25.707Z,2.90
2023-01-27T17:58:18.188Z,2.90
2023-01-27T18:00:46.906Z,2.90
2023-01-27T18:03:17.803Z,2.90
2023-01-27T18:05:46.158Z,2.90
2023-01-27T18:08:13.057Z,3.00
2023-01-27T18:10:44.046Z,3.00
2023-01-27T18:13:34.129Z,3.00
2023-01-27T18:16:00.938Z,3.00
2023-01-27T18:18:33.205Z,3.00
2023-01-27T18:21:08.881Z,3.00
2023-01-27T18:23:45.332Z,3.00
2023-01-27T18:26:21.088Z,3.00
2023-01-27T18:28:58.179Z,3.00
2023-01-27T18:31:31.206Z,3.00
2023-01-27T18:34:20.807Z,3.00
2023-01-27T18:36:59.566Z,3.00
2023-01-27T18:39:32.424Z,3.00
2023-01-27T18:41:59.991Z,3.00
2023-01-27T18:44:35.444Z,3.00
2023-01-27T18:47:25.143Z,3.00
2023-01-27T18:50:07.226Z,3.00
2023-01-27T18:52:33.925Z,3.00
2023-01-27T18:55:39.631Z,2.90
2023-01-27T18:58:07.382Z,2.90
2023-01-27T19:00:43.889Z,2.90
2023-01-27T19:03:19.327Z,2.90
2023-01-27T19:05:47.388Z,2.90
2023-01-27T19:08:19.468Z,2.80
2023-01-27T19:10:47.206Z,2.80
2023-01-27T19:13:16.822Z,2.80
2023-01-27T19:15:50.062Z,2.90
2023-01-27T19:18:46.392Z,2.90
2023-01-27T19:21:15.671Z,2.90
2023-01-27T19:23:45.916Z,3.00
2023-01-27T19:26:19.179Z,3.00
2023-01-27T19:28:49.011Z,3.00
2023-01-27T19:31:15.942Z,3.00
2023-01-27T19:33:45.775Z,3.00
2023-01-27T19:36:43.957Z,3.00
2023-01-27T19:39:16.856Z,3.00
2023-01-27T19:41:45.972Z,3.00
2023-01-27T19:44:13.722Z,2.90
2023-01-27T19:46:41.969Z,3.00
2023-01-27T19:49:17.204Z,3.00
2023-01-27T19:51:44.169Z,3.00
2023-01-27T19:54:11.245Z,3.00
2023-01-27T19:56:38.418Z,3.10
2023-01-27T19:59:05.222Z,3.10
2023-01-27T20:01:32.029Z,3.10
2023-01-27T20:03:59.059Z,3.10
2023-01-27T20:06:29.039Z,3.10
2023-01-27T20:08:59.482Z,3.20
2023-01-27T20:11:36.411Z,3.20
2023-01-27T20:14:06.029Z,3.20
2023-01-27T20:16:33.155Z,3.20
2023-01-27T20:19:00.402Z,3.20
2023-01-27T20:21:27.857Z,3.20
2023-01-27T20:23:54.762Z,3.30
2023-01-27T20:26:22.632Z,3.30
2023-01-27T20:28:50.076Z,3.30
2023-01-27T20:31:20.137Z,3.20
2023-01-27T20:33:50.217Z,3.20
2023-01-27T20:36:22.743Z,3.20
2023-01-27T20:38:51.211Z,3.20
2023-01-27T20:41:21.054Z,3.20
2023-01-27T20:43:48.611Z,3.10
2023-01-27T20:46:17.681Z,3.10
2023-01-27T20:48:44.692Z,3.20
2023-01-27T20:51:15.209Z,3.20
2023-01-27T20:53:46.530Z,3.20
2023-01-27T20:56:15.097Z,3.10
2023-01-27T20:58:42.046Z,3.10
2023-01-27T21:01:18.605Z,3.10
2023-01-27T21:03:45.889Z,3.10
2023-01-27T21:06:15.842Z,3.10
2023-01-27T21:08:43.597Z,3.10
2023-01-27T21:11:12.911Z,3.10
2023-01-27T21:13:39.846Z,3.10
2023-01-27T21:16:09.119Z,3.10
2023-01-27T21:18:36.849Z,3.10
2023-01-27T21:21:04.183Z,3.10
2023-01-27T21:23:34.799Z,3.10
2023-01-27T21:26:09.182Z,3.10
2023-01-27T21:28:36.096Z,3.10
2023-01-27T21:31:07.645Z,3.00
2023-01-27T21:33:36.632Z,3.00
2023-01-27T21:36:04.654Z,3.00
2023-01-27T21:38:32.555Z,3.00
2023-01-27T21:41:12.873Z,2.90
2023-01-27T21:43:57.951Z,2.90
2023-01-27T21:46:24.817Z,2.80
2023-01-27T21:48:51.851Z,2.80
2023-01-27T21:51:18.669Z,2.80
2023-01-27T21:53:45.451Z,2.90
2023-01-27T21:56:12.265Z,2.90
2023-01-27T21:58:39.108Z,3.00
2023-01-27T22:01:10.966Z,3.00
2023-01-27T22:03:38.421Z,3.00
2023-01-27T22:06:09.670Z,3.00
2023-01-27T22:08:37.119Z,3.00
2023-01-27T22:11:05.501Z,3.00
2023-01-27T22:13:33.751Z,3.00
2023-01-27T22:16:01.278Z,3.00
2023-01-27T22:18:28.169Z,3.00
2023-01-27T22:20:55.056Z,3.00
2023-01-27T22:23:23.680Z,3.00
2023-01-27T22:25:53.632Z,3.00
2023-01-27T22:28:23.025Z,3.00
2023-01-27T22:30:50.286Z,3.00
2023-01-27T22:33:18.559Z,3.10
2023-01-27T22:35:45.308Z,3.20
2023-01-27T22:38:12.255Z,3.20
2023-01-27T22:40:39.022Z,3.20
2023-01-27T22:43:09.553Z,3.30
2023-01-27T22:45:40.370Z,3.30
2023-01-27T22:48:08.673Z,3.40
2023-01-27T22:50:36.031Z,3.40
2023-01-27T22:53:04.060Z,3.40
2023-01-27T22:55:30.889Z,3.40
2023-01-27T22:57:57.764Z,3.40
2023-01-27T23:00:24.676Z,3.40
2023-01-27T23:02:51.505Z,3.50
2023-01-27T23:05:18.224Z,3.50
2023-01-27T23:07:47.087Z,3.50
2023-01-27T23:10:14.001Z,3.50
2023-01-27T23:12:40.765Z,3.50
2023-01-27T23:15:08.217Z,3.50
2023-01-27T23:17:35.463Z,3.50
2023-01-27T23:20:02.712Z,3.50
2023-01-27T23:22:29.505Z,3.50
2023-01-27T23:24:56.269Z,3.40
2023-01-27T23:27:23.066Z,3.40
2023-01-27T23:29:49.806Z,3.40
2023-01-27T23:32:16.555Z,3.40
2023-01-27T23:34:43.261Z,3.40
2023-01-27T23:37:10.020Z,3.40
2023-01-27T23:39:36.872Z,3.40
2023-01-27T23:42:03.680Z,3.40
2023-01-27T23:44:30.535Z,3.40
2023-01-27T23:46:57.336Z,3.30
2023-01-27T23:49:24.087Z,3.30
2023-01-27T23:51:50.797Z,3.30
2023-01-27T23:54:17.836Z,3.20
2023-01-27T23:56:44.970Z,3.20
2023-01-27T23:59:13.148Z,3.30
